createdAt,value
2022-10-01T00:02:57.241Z,100552.28
2022-10-01T00:08:02.831Z,100548.47
2022-10-01T00:13:08.212Z,100538.09
2022-10-01T00:18:14.082Z,100536.38
2022-10-01T00:23:20.017Z,100531.59
2022-10-01T00:28:26.403Z,100522.04
2022-10-01T00:33:32.265Z,100512.75
2022-10-01T00:38:41.804Z,100511.14
2022-10-01T00:43:50.366Z,100501.98
2022-10-01T00:49:13.687Z,100496.35
2022-10-01T00:54:22.486Z,100489.38
2022-10-01T00:59:29.486Z,100491.20
2022-10-01T01:04:35.138Z,100486.42
2022-10-01T01:09:43.580Z,100481.53
2022-10-01T01:15:19.419Z,100484.81
2022-10-01T01:20:53.457Z,100480.14
2022-10-01T01:26:24.639Z,100475.47
2022-10-01T01:31:33.985Z,100468.63
2022-10-01T01:36:43.365Z,100462.89
2022-10-01T01:41:51.855Z,100463.53
2022-10-01T01:46:58.377Z,100461.55
2022-10-01T01:52:16.162Z,100457.63
2022-10-01T01:57:22.267Z,100449.09
2022-10-01T02:02:32.814Z,100449.25
2022-10-01T02:07:55.409Z,100435.94
2022-10-01T02:13:24.260Z,100433.84
2022-10-01T02:18:32.818Z,100434.33
2022-10-01T02:23:41.327Z,100431.75
2022-10-01T02:28:49.053Z,100428.00
2022-10-01T02:33:56.816Z,100437.77
2022-10-01T02:39:05.453Z,100420.31
2022-10-01T02:44:13.867Z,100419.23
2022-10-01T02:49:20.233Z,100424.47
2022-10-01T02:54:37.464Z,100425.11
2022-10-01T02:59:43.071Z,100415.71
2022-10-01T03:04:51.465Z,100408.14
2022-10-01T03:09:57.205Z,100403.25
2022-10-01T03:15:02.870Z,100403.14
2022-10-01T03:20:09.549Z,100408.14
2022-10-01T03:25:16.339Z,100403.73
2022-10-01T03:30:22.368Z,100396.17
2022-10-01T03:35:27.894Z,100381.52
2022-10-01T03:40:34.937Z,100388.86
2022-10-01T03:45:41.129Z,100379.79
2022-10-01T03:50:55.433Z,100380.27
2022-10-01T03:56:01.754Z,100374.16
2022-10-01T04:01:07.204Z,100373.89
2022-10-01T04:06:13.360Z,100365.36
2022-10-01T04:11:18.759Z,100358.49
2022-10-01T04:16:25.011Z,100356.19
2022-10-01T04:21:30.613Z,100351.95
2022-10-01T04:26:36.504Z,100350.73
2022-10-01T04:31:42.027Z,100343.53
2022-10-01T04:36:47.719Z,100339.51
2022-10-01T04:41:53.111Z,100346.70
2022-10-01T04:46:58.564Z,100333.28
2022-10-01T04:52:04.979Z,100324.75
2022-10-01T04:57:10.361Z,100329.11
2022-10-01T05:02:16.285Z,100322.02
2022-10-01T05:07:22.402Z,100316.98
2022-10-01T05:12:28.914Z,100318.92
2022-10-01T05:17:34.667Z,100316.70
2022-10-01T05:22:40.059Z,100314.88
2022-10-01T05:27:46.159Z,100316.01
2022-10-01T05:33:00.163Z,100307.22
2022-10-01T05:38:05.559Z,100311.50
2022-10-01T05:43:11.265Z,100302.34
2022-10-01T05:48:16.659Z,100305.18
2022-10-01T05:53:23.594Z,100301.90
2022-10-01T05:58:29.487Z,100298.03
2022-10-01T06:03:36.106Z,100295.72
2022-10-01T06:08:41.563Z,100289.20
2022-10-01T06:13:47.295Z,100278.36
2022-10-01T06:18:54.318Z,100272.20
2022-10-01T06:24:00.070Z,100269.89
2022-10-01T06:29:05.454Z,100256.21
2022-10-01T06:34:13.231Z,100252.67
2022-10-01T06:39:18.626Z,100234.28
2022-10-01T06:44:24.027Z,100228.34
2022-10-01T06:49:29.418Z,100230.16
2022-10-01T06:54:34.807Z,100217.76
2022-10-01T06:59:40.193Z,100214.34
2022-10-01T07:04:48.805Z,100212.39
2022-10-01T07:09:54.284Z,100210.22
2022-10-01T07:14:59.673Z,100211.20
2022-10-01T07:20:05.979Z,100200.81
2022-10-01T07:25:11.799Z,100188.86
2022-10-01T07:30:17.342Z,100185.32
2022-10-01T07:35:23.376Z,100180.78
2022-10-01T07:40:28.784Z,100174.94
2022-10-01T07:45:34.459Z,100171.61
2022-10-01T07:50:39.968Z,100163.09
2022-10-01T07:55:45.541Z,100161.95
2022-10-01T08:00:52.852Z,100153.27
2022-10-01T08:05:58.268Z,100148.45
2022-10-01T08:11:04.200Z,100139.28
2022-10-01T08:16:11.453Z,100134.51
2022-10-01T08:21:16.881Z,100127.04
2022-10-01T08:26:22.347Z,100123.06
2022-10-01T08:31:28.399Z,100112.22
2022-10-01T08:36:35.492Z,100100.34
2022-10-01T08:41:56.222Z,100094.58
2022-10-01T08:47:04.734Z,100090.28
2022-10-01T08:52:31.101Z,100090.33
2022-10-01T08:57:39.614Z,100078.52
2022-10-01T09:02:46.990Z,100072.93
2022-10-01T09:07:58.273Z,100072.09
2022-10-01T09:13:18.916Z,100047.55
2022-10-01T09:18:33.182Z,100039.96
2022-10-01T09:23:41.691Z,100036.77
2022-10-01T09:28:50.141Z,100039.66
2022-10-01T09:34:15.883Z,100036.07
2022-10-01T09:39:27.316Z,100028.44
2022-10-01T09:44:35.042Z,100025.84
2022-10-01T09:49:44.071Z,100021.31
2022-10-01T09:54:55.000Z,100015.08
2022-10-01T10:00:24.709Z,100014.13
2022-10-01T10:05:33.325Z,99999.22
2022-10-01T10:10:41.156Z,100001.78
2022-10-01T10:15:58.314Z,99992.70
2022-10-01T10:21:08.078Z,99984.20
2022-10-01T10:26:16.601Z,99985.05
2022-10-01T10:31:25.367Z,99966.77
2022-10-01T10:36:34.092Z,99963.11
2022-10-01T10:41:44.349Z,99949.41
2022-10-01T10:46:51.186Z,99958.96
2022-10-01T10:51:58.709Z,99948.67
2022-10-01T10:57:08.318Z,99934.95
2022-10-01T11:02:16.815Z,99930.45
2022-10-01T11:07:25.589Z,99922.49
2022-10-01T11:12:47.497Z,99921.84
2022-10-01T11:18:02.456Z,99898.33
2022-10-01T11:23:26.949Z,99894.97
2022-10-01T11:28:50.195Z,99888.22
2022-10-01T11:34:21.018Z,99895.95
2022-10-01T11:39:29.741Z,99889.72
2022-10-01T11:45:01.046Z,99884.77
2022-10-01T11:50:18.786Z,99882.50
2022-10-01T11:55:54.172Z,99884.27
2022-10-01T12:01:08.592Z,99886.50
2022-10-01T12:06:16.780Z,99881.66
2022-10-01T12:11:31.270Z,99893.03
2022-10-01T12:16:57.844Z,99877.20
2022-10-01T12:22:09.391Z,99884.71
2022-10-01T12:27:29.765Z,99874.17
2022-10-01T12:32:38.198Z,99878.87
2022-10-01T12:37:49.472Z,99877.83
2022-10-01T12:43:22.218Z,99880.59
2022-10-01T12:48:52.777Z,99871.03
2022-10-01T12:54:35.161Z,99868.41
2022-10-01T12:59:50.385Z,99868.22
2022-10-01T13:05:05.277Z,99866.00
2022-10-01T13:10:16.532Z,99861.69
2022-10-01T13:15:31.913Z,99854.53
2022-10-01T13:20:43.512Z,99853.03
2022-10-01T13:26:06.254Z,99843.61
2022-10-01T13:31:18.979Z,99836.56
2022-10-01T13:36:36.735Z,99831.11
2022-10-01T13:41:43.341Z,99835.88
2022-10-01T13:46:54.434Z,99834.82
2022-10-01T13:52:02.319Z,99830.03
2022-10-01T13:57:13.314Z,99826.41
2022-10-01T14:02:37.093Z,99822.36
2022-10-01T14:07:45.762Z,99823.79
2022-10-01T14:13:10.581Z,99821.77
2022-10-01T14:18:21.922Z,99813.56
2022-10-01T14:23:48.745Z,99800.10
2022-10-01T14:29:01.014Z,99796.83
2022-10-01T14:34:21.071Z,99796.24
2022-10-01T14:39:28.725Z,99796.00
2022-10-01T14:44:45.843Z,99792.28
2022-10-01T14:49:52.368Z,99790.66
2022-10-01T14:55:03.884Z,99785.17
2022-10-01T15:00:12.608Z,99785.66
2022-10-01T15:05:37.480Z,99776.61
2022-10-01T15:10:48.427Z,99778.72
2022-10-01T15:15:55.808Z,99772.03
2022-10-01T15:21:09.095Z,99770.55
2022-10-01T15:26:17.267Z,99769.80
2022-10-01T15:31:23.521Z,99767.28
2022-10-01T15:36:29.969Z,99775.91
2022-10-01T15:41:36.828Z,99777.25
2022-10-01T15:46:42.944Z,99780.44
2022-10-01T15:52:15.262Z,99776.56
2022-10-01T15:57:25.917Z,99775.22
2022-10-01T16:02:33.422Z,99776.98
2022-10-01T16:07:40.498Z,99770.89
2022-10-01T16:12:46.214Z,99778.95
2022-10-01T16:17:57.368Z,99774.47
2022-10-01T16:23:28.177Z,99764.13
2022-10-01T16:28:37.619Z,99778.46
2022-10-01T16:33:42.999Z,99780.66
2022-10-01T16:38:49.314Z,99789.51
2022-10-01T16:43:57.101Z,99792.71
2022-10-01T16:49:02.771Z,99804.48
2022-10-01T16:54:20.103Z,99806.31
2022-10-01T16:59:25.650Z,99803.28
2022-10-01T17:04:34.109Z,99815.14
2022-10-01T17:09:39.726Z,99808.19
2022-10-01T17:14:45.126Z,99801.34
2022-10-01T17:19:50.536Z,99811.86
2022-10-01T17:24:55.939Z,99812.53
2022-10-01T17:30:01.403Z,99818.54
2022-10-01T17:35:07.834Z,99824.41
2022-10-01T17:40:13.295Z,99826.67
2022-10-01T17:45:18.834Z,99823.02
2022-10-01T17:50:24.470Z,99820.71
2022-10-01T17:55:30.109Z,99827.66
2022-10-01T18:00:38.314Z,99818.02
2022-10-01T18:05:43.722Z,99829.62
2022-10-01T18:10:49.101Z,99833.44
2022-10-01T18:16:03.758Z,99837.80
2022-10-01T18:21:15.365Z,99833.56
2022-10-01T18:26:20.761Z,99847.97
2022-10-01T18:31:28.312Z,99854.56
2022-10-01T18:36:53.294Z,99856.14
2022-10-01T18:41:59.287Z,99861.39
2022-10-01T18:47:25.999Z,99858.95
2022-10-01T18:52:53.852Z,99860.49
2022-10-01T18:58:19.450Z,99862.94
2022-10-01T19:03:30.422Z,99883.06
2022-10-01T19:08:57.167Z,99883.06
2022-10-01T19:14:08.655Z,99894.29
2022-10-01T19:19:52.790Z,99903.20
2022-10-01T19:25:22.562Z,99901.13
2022-10-01T19:30:33.877Z,99916.27
2022-10-01T19:35:51.341Z,99908.69
2022-10-01T19:40:59.931Z,99914.92
2022-10-01T19:46:20.813Z,99911.26
2022-10-01T19:51:38.855Z,99921.88
2022-10-01T19:56:46.813Z,99922.36
2022-10-01T20:02:03.709Z,99922.61
2022-10-01T20:07:12.217Z,99927.61
2022-10-01T20:12:29.554Z,99927.00
2022-10-01T20:17:55.353Z,99933.47
2022-10-01T20:23:12.746Z,99940.19
2022-10-01T20:28:38.089Z,99947.87
2022-10-01T20:33:59.220Z,99953.97
2022-10-01T20:39:08.046Z,99958.48
2022-10-01T20:44:16.531Z,99964.84
2022-10-01T20:49:33.917Z,99971.80
2022-10-01T20:54:42.348Z,99977.08
2022-10-01T20:59:53.615Z,99981.59
2022-10-01T21:05:08.139Z,99990.98
2022-10-01T21:10:53.792Z,99992.45
2022-10-01T21:16:20.441Z,99991.84
2022-10-01T21:21:57.775Z,100002.58
2022-10-01T21:27:34.840Z,100015.02
2022-10-01T21:32:58.816Z,100016.24
2022-10-01T21:38:28.565Z,100027.95
2022-10-01T21:43:46.112Z,100041.23
2022-10-01T21:48:54.534Z,100046.39
2022-10-01T21:54:02.971Z,100044.29
2022-10-01T21:59:29.536Z,100049.91
2022-10-01T22:04:46.740Z,100058.81
2022-10-01T22:09:55.512Z,100071.64
2022-10-01T22:15:02.241Z,100074.82
2022-10-01T22:20:08.901Z,100085.69
2022-10-01T22:25:15.313Z,100095.92
2022-10-01T22:30:23.921Z,100106.17
2022-10-01T22:35:53.570Z,100109.48
2022-10-01T22:41:27.512Z,100130.10
2022-10-01T22:46:50.888Z,100145.97
2022-10-01T22:52:02.341Z,100133.77
2022-10-01T22:57:25.761Z,100150.01
2022-10-01T23:02:50.724Z,100150.75
2022-10-01T23:08:04.693Z,100154.54
2022-10-01T23:13:27.924Z,100167.72
2022-10-01T23:18:45.257Z,100167.83
2022-10-01T23:23:56.442Z,100176.75
2022-10-01T23:29:10.504Z,100192.98
2022-10-01T23:34:49.377Z,100200.88
2022-10-01T23:40:04.154Z,100206.48
2022-10-01T23:45:27.843Z,100212.46
2022-10-01T23:50:44.692Z,100218.89
2022-10-01T23:56:13.551Z,100221.58
